Lisboa, Portugal

06:58 PM AZOT em 20 de Janeiro de 2017 (GMT -0100)
Rua Marechal Costa Gomes | | Change Station

Elev 187 ft 38.80 °N, 9.11 °W | Updated 1 minute ago

Clear
Céu Limpo
48.2 °F
Aparente 48 °F
N
0.6
Vento Variável Vento de Este
Gusts 1.9 mph

Hoje
Máxima -- | Mínima -- °F
--% Possibilidade de Precip.
Ontem
Máxima -- | Mínima -- °F
Precip. -- pol
Pressão 30.06 pol
Visibilidade -9999.0 milhas
Nuvens
Sensação Térmica 48 °F
Ponto de Orvalho 43 °F
Humidade 81%
Chuva pol
Altura de Neve Não disponível
6:51 AM 4:44 PM
Quarto minguante, 42% visible
METAR LPPT 201930Z 34007KT CAVOK 09/02 Q1018
Pressão 30.06 pol
Visibilidade -9999.0 milhas
Nuvens
Sensação Térmica 48 °F
Ponto de Orvalho 43 °F
Humidade 81%
Chuva pol
Altura de Neve Não disponível
6:51 AM 4:44 PM
Quarto minguante, 42% visible
METAR LPPT 201930Z 34007KT CAVOK 09/02 Q1018

Get Your Daily Forecast Email!

Thanks for signing up!

Be on the lookout for a verification email in your inbox.

You'll start receiving the daily forecast at 8 AM.

×

10-Day Weather Forecast

×

Almanac

Astronomia

Jan. 20, 2017 Nascer Pôr
Hora atual
Crepúsculo civil
Crepúsculo náutico
Crepúsculo astronómico
Lua
Comprimento da luz visível
Duração do Dia
Tomorrow will be .
, % of the Moon is Illuminated

Extremos de Hoje

Altitude na localidade Altura mais baixa na localidade

Community

WunderPhotos

Upload Photos

1,962,540 fotografias inseridas!

WunderBlog® & News

Nearby

Qualidade do Ar

  Qualidade do Ar Índice da Q.A. Poluente
Not available.

Altura da Neve

Estação altura Altitude

Actividade Sísmisca

Cidade Distância Mag. Hora & Data
Mínima magnitude apresentada é 2.5.

Temperaturas das Águas Costeiras

Local Temperatura

Stations

Estações Meteorológicas Próximas

Localização da Estação Temp. Sensação Térmica Ponto de Orvalho Humidade Vento Precip. Elev Actualizado Tipo